Etusivu
METAR-TAF:

METAR-TAF

Lentoasemat :

Marshall, Texas, Yhdysvallat

Leveyspiiri: 32-31-14N, Pituuspiiri: 094-18-28W, korkeus merenpinnasta: 109 m

Tämänhetkinen sää

Tämä raportti tehtiin 31 minuuttia sitten, kello 15.55 UTC
Tuuli 3 kn etelästä
Lämpötila 13°C
Kosteus 58%
Ilmanpaine 1017 hPa
Näkyvyys: 16.1 km
selkeää

METAR: KASL 181555Z AUTO 19003KT 10SM CLR 13/05 A3003 RMK AO1 T01310047

Aika: 09:26 (16:26 UTC)


TAF: puuttuu

Säähavainnot ja -ennusteet yli 4000 lentoasemalta (METAR- ja TAF-raportit).

Käytössä olevat sääasemat on merkitty karttaan keltaisilla ja punaisilla pisteillä.

Aseta hiiri pisteen päälle nähdäksesi sääaseman nimen.

Klikkaa sitten nähdäksesi säähavainnot ja -ennusteet.

Kartan vaihtaminen: klikkaa mustalla rastilla varustettuja vihreitä pisteitä, niin voit zoomata sisään; viivalla varustettua vihreää pistettä, niin voit zoomata ulos tai vihreitä nuolia, niin pääset viereisille kartoille.


METAR-TAF: